createdAt,value
2022-10-24T00:01:05.073Z,184
2022-10-24T00:03:06.721Z,184
2022-10-24T00:07:09.477Z,184
2022-10-24T00:09:11.110Z,184
2022-10-24T00:11:12.731Z,184
2022-10-24T00:13:14.019Z,184
2022-10-24T00:17:16.768Z,184
2022-10-24T00:19:18.281Z,184
2022-10-24T00:21:19.176Z,184
2022-10-24T00:23:20.538Z,184
2022-10-24T00:27:22.666Z,184
2022-10-24T00:29:24.399Z,184
2022-10-24T00:33:27.679Z,184
2022-10-24T00:35:28.723Z,184
2022-10-24T00:37:29.578Z,184
2022-10-24T00:39:31.221Z,184
2022-10-24T00:47:37.057Z,29
2022-10-24T00:49:38.934Z,29
2022-10-24T00:51:40.705Z,29
2022-10-24T00:55:43.127Z,29
2022-10-24T00:57:44.427Z,29
2022-10-24T00:59:45.646Z,29
2022-10-24T01:01:46.570Z,29
2022-10-24T01:03:48.244Z,29
2022-10-24T01:05:49.940Z,29
2022-10-24T01:07:51.179Z,29
2022-10-24T01:09:52.943Z,29
2022-10-24T01:15:57.346Z,12
2022-10-24T01:17:59.154Z,12
2022-10-24T01:20:00.064Z,12
2022-10-24T01:22:01.130Z,12
2022-10-24T01:24:02.726Z,12
2022-10-24T01:26:04.243Z,12
2022-10-24T01:28:05.160Z,12
2022-10-24T01:30:06.659Z,12
2022-10-24T01:32:07.808Z,12
2022-10-24T01:34:09.580Z,12
2022-10-24T01:38:12.472Z,12
2022-10-24T01:40:13.686Z,12
2022-10-24T01:42:14.759Z,12
2022-10-24T01:44:15.897Z,12
2022-10-24T01:48:19.014Z,12
2022-10-24T01:50:20.870Z,12
2022-10-24T01:52:21.957Z,12
2022-10-24T01:54:23.406Z,12
2022-10-24T01:58:26.437Z,12
2022-10-24T02:00:27.618Z,12
2022-10-24T02:02:28.631Z,12
2022-10-24T02:04:29.596Z,12
2022-10-24T02:08:32.270Z,12
2022-10-24T02:10:33.195Z,12
2022-10-24T02:12:34.233Z,12
2022-10-24T02:14:35.207Z,12
2022-10-24T02:16:37.035Z,12
2022-10-24T02:18:37.965Z,12
2022-10-24T02:20:39.490Z,12
2022-10-24T02:24:42.319Z,12
2022-10-24T02:26:43.337Z,12
2022-10-24T02:28:44.948Z,12
2022-10-24T02:30:46.663Z,12
2022-10-24T02:32:47.605Z,12
2022-10-24T02:36:51.021Z,12
2022-10-24T02:38:52.220Z,12
2022-10-24T02:40:53.514Z,12
2022-10-24T02:42:54.811Z,12
2022-10-24T02:46:57.212Z,12
2022-10-24T02:48:58.753Z,12
2022-10-24T02:51:00.449Z,12
2022-10-24T02:53:02.022Z,12
2022-10-24T02:55:03.662Z,12
2022-10-24T02:57:04.614Z,12
2022-10-24T02:59:06.444Z,12
2022-10-24T03:01:08.199Z,12
2022-10-24T03:03:09.533Z,12
2022-10-24T03:05:10.811Z,12
2022-10-24T03:07:12.444Z,12
2022-10-24T03:09:13.994Z,12
2022-10-24T03:11:15.220Z,12
2022-10-24T03:13:16.799Z,12
2022-10-24T03:15:18.343Z,12
2022-10-24T03:19:21.138Z,12
2022-10-24T03:21:22.925Z,12
2022-10-24T03:23:24.581Z,12
2022-10-24T03:25:25.823Z,12
2022-10-24T03:29:28.514Z,12
2022-10-24T03:31:29.609Z,12
2022-10-24T03:33:31.251Z,12
2022-10-24T03:35:32.738Z,12
2022-10-24T03:37:33.718Z,12
2022-10-24T03:39:34.859Z,12
2022-10-24T03:41:36.199Z,12
2022-10-24T03:43:37.988Z,12
2022-10-24T03:45:39.636Z,12
2022-10-24T03:47:41.436Z,12
2022-10-24T03:49:42.678Z,12
2022-10-24T03:51:44.097Z,12
2022-10-24T03:53:45.571Z,12
2022-10-24T03:55:47.010Z,12
2022-10-24T03:57:48.900Z,12
2022-10-24T04:01:51.212Z,12
2022-10-24T04:03:53.087Z,14
2022-10-24T04:07:55.465Z,14
2022-10-24T04:11:58.403Z,14
2022-10-24T04:14:00.006Z,14
2022-10-24T04:16:01.008Z,14
2022-10-24T04:18:02.839Z,14
2022-10-24T04:20:04.331Z,14
2022-10-24T04:22:05.403Z,14
2022-10-24T04:24:06.961Z,14
2022-10-24T04:26:08.672Z,14
2022-10-24T04:28:10.472Z,14
2022-10-24T04:30:15.563Z,14
2022-10-24T04:32:13.090Z,14
2022-10-24T04:34:14.907Z,14
2022-10-24T04:36:16.240Z,14
2022-10-24T04:38:17.989Z,14
2022-10-24T04:40:19.037Z,9
2022-10-24T04:44:22.339Z,50
2022-10-24T04:46:23.507Z,209
2022-10-24T04:48:24.452Z,209
2022-10-24T04:50:25.916Z,209
2022-10-24T04:54:29.023Z,38
2022-10-24T04:56:30.037Z,38
2022-10-24T04:58:31.155Z,38
2022-10-24T05:00:32.246Z,38
2022-10-24T05:04:34.779Z,37
2022-10-24T05:06:37.651Z,37
2022-10-24T05:14:42.625Z,41
2022-10-24T05:16:43.947Z,41
2022-10-24T05:20:46.626Z,41
2022-10-24T05:22:48.076Z,41
2022-10-24T05:26:51.289Z,41
2022-10-24T05:28:52.973Z,41
2022-10-24T05:30:53.836Z,41
2022-10-24T05:32:54.923Z,41
2022-10-24T05:36:57.759Z,41
2022-10-24T05:38:58.688Z,41
2022-10-24T05:43:01.402Z,41
2022-10-24T05:47:05.142Z,41
2022-10-24T05:49:06.401Z,41
2022-10-24T05:53:09.974Z,311
2022-10-24T05:57:12.897Z,311
2022-10-24T05:59:14.310Z,311
2022-10-24T06:01:15.911Z,311
2022-10-24T06:03:16.859Z,242
2022-10-24T06:04:00.617Z,246
2022-10-24T06:08:02.714Z,246
2022-10-24T06:10:03.676Z,246
2022-10-24T06:12:04.748Z,246
2022-10-24T06:16:06.804Z,247
2022-10-24T06:18:08.577Z,235
2022-10-24T06:20:10.078Z,160
2022-10-24T06:22:11.743Z,197
2022-10-24T06:24:13.344Z,195
2022-10-24T06:30:17.905Z,214
2022-10-24T06:32:19.061Z,229
2022-10-24T06:36:21.789Z,213
2022-10-24T06:38:23.213Z,213
2022-10-24T06:40:24.299Z,188
2022-10-24T06:42:25.299Z,122
2022-10-24T06:44:26.401Z,193
2022-10-24T06:46:28.151Z,162
2022-10-24T06:48:29.584Z,137
2022-10-24T06:50:30.469Z,188
2022-10-24T06:52:31.551Z,188
2022-10-24T06:54:33.355Z,188
2022-10-24T06:56:35.067Z,188
2022-10-24T06:58:36.330Z,188
2022-10-24T07:00:37.944Z,188
2022-10-24T07:02:39.076Z,187
2022-10-24T07:04:40.696Z,187
2022-10-24T07:08:43.265Z,149
2022-10-24T07:10:44.575Z,148
2022-10-24T07:12:45.859Z,148
2022-10-24T07:14:47.280Z,148
2022-10-24T07:18:49.698Z,148
2022-10-24T07:22:52.416Z,148
2022-10-24T07:24:53.500Z,148
2022-10-24T07:28:55.536Z,148
2022-10-24T07:32:57.669Z,148
2022-10-24T07:34:59.337Z,148
2022-10-24T07:37:00.502Z,148
2022-10-24T07:39:02.345Z,148
2022-10-24T07:41:03.807Z,149
2022-10-24T07:45:06.629Z,149
2022-10-24T07:47:08.001Z,149
2022-10-24T07:49:09.725Z,149
2022-10-24T07:51:11.619Z,149
2022-10-24T07:53:13.209Z,149
2022-10-24T07:55:14.097Z,149
2022-10-24T07:57:15.698Z,149
2022-10-24T07:59:30.192Z,149
2022-10-24T08:01:17.824Z,149
2022-10-24T08:03:18.935Z,149
2022-10-24T08:05:22.127Z,149
2022-10-24T08:07:21.505Z,149
2022-10-24T08:11:24.253Z,149
2022-10-24T08:13:26.058Z,149
2022-10-24T08:15:27.555Z,149
2022-10-24T08:17:29.334Z,150
2022-10-24T08:19:31.179Z,149
2022-10-24T08:21:32.688Z,150
2022-10-24T08:23:34.415Z,149
2022-10-24T08:29:38.308Z,149
2022-10-24T08:31:39.263Z,114
2022-10-24T08:33:40.229Z,114
2022-10-24T08:35:42.021Z,114
2022-10-24T08:37:43.101Z,114
2022-10-24T08:39:44.006Z,114
2022-10-24T08:41:45.483Z,114
2022-10-24T08:45:48.503Z,360
2022-10-24T08:47:50.197Z,360
2022-10-24T08:49:51.905Z,360
2022-10-24T08:51:53.060Z,360
2022-10-24T08:53:54.325Z,360
2022-10-24T08:55:55.952Z,360
2022-10-24T08:57:57.459Z,360
2022-10-24T08:59:58.782Z,360
2022-10-24T09:02:01.934Z,360
2022-10-24T09:04:00.889Z,157
2022-10-24T09:06:01.997Z,157
2022-10-24T09:08:03.295Z,157
2022-10-24T09:12:06.544Z,157
2022-10-24T09:14:07.559Z,157
2022-10-24T09:16:08.843Z,157
2022-10-24T09:18:09.705Z,171
2022-10-24T09:22:12.889Z,171
2022-10-24T09:24:14.337Z,172
2022-10-24T09:26:15.666Z,172
2022-10-24T09:28:16.868Z,171
2022-10-24T09:30:18.509Z,171
2022-10-24T09:32:19.704Z,136
2022-10-24T09:34:20.675Z,137
2022-10-24T09:36:21.623Z,136
2022-10-24T09:38:23.374Z,144
2022-10-24T09:40:24.922Z,143
2022-10-24T09:42:26.022Z,143
2022-10-24T09:44:27.148Z,160
2022-10-24T09:46:28.038Z,160
2022-10-24T09:48:30.416Z,187
2022-10-24T09:50:30.927Z,124
2022-10-24T09:54:32.856Z,145
2022-10-24T09:56:34.205Z,145
2022-10-24T09:58:35.925Z,145
2022-10-24T10:00:37.072Z,165
2022-10-24T10:02:38.060Z,166
2022-10-24T10:04:39.520Z,167
2022-10-24T10:06:41.069Z,167
2022-10-24T10:08:42.426Z,167
2022-10-24T10:14:46.673Z,185
2022-10-24T10:16:48.262Z,179
2022-10-24T10:20:50.750Z,179
2022-10-24T10:24:53.734Z,132
2022-10-24T10:26:55.045Z,132
2022-10-24T10:30:57.692Z,132
2022-10-24T10:32:59.006Z,132
2022-10-24T10:34:59.973Z,132
2022-10-24T10:37:01.413Z,132
2022-10-24T10:43:05.199Z,132
2022-10-24T10:45:06.238Z,135
2022-10-24T10:49:09.934Z,129
2022-10-24T10:53:13.093Z,129
2022-10-24T10:57:17.277Z,162
2022-10-24T10:59:17.396Z,162
2022-10-24T11:03:19.613Z,161
2022-10-24T11:05:21.255Z,159
2022-10-24T11:09:24.540Z,159
2022-10-24T11:13:26.862Z,174
2022-10-24T11:15:27.622Z,157
2022-10-24T11:17:29.403Z,166
2022-10-24T11:19:30.500Z,167
2022-10-24T11:21:31.784Z,167
2022-10-24T11:23:33.014Z,167
2022-10-24T11:25:34.159Z,167
2022-10-24T11:27:35.196Z,167
2022-10-24T11:29:36.500Z,167
2022-10-24T11:31:37.769Z,167
2022-10-24T11:35:40.243Z,164
2022-10-24T11:37:42.020Z,169
2022-10-24T11:39:43.403Z,170
2022-10-24T11:41:44.359Z,170
2022-10-24T11:43:45.801Z,170
2022-10-24T11:45:47.226Z,170
2022-10-24T11:47:49.046Z,170
2022-10-24T11:49:50.128Z,172
2022-10-24T11:51:51.334Z,172
2022-10-24T11:55:54.027Z,176
2022-10-24T11:57:55.185Z,176
2022-10-24T11:59:56.175Z,174
2022-10-24T12:01:57.190Z,179
2022-10-24T12:03:58.688Z,218
2022-10-24T12:06:00.151Z,141
2022-10-24T12:08:01.647Z,184
2022-10-24T12:10:02.883Z,170
2022-10-24T12:12:04.285Z,183
2022-10-24T12:14:05.316Z,189
2022-10-24T12:16:07.033Z,173
2022-10-24T12:18:08.802Z,187
2022-10-24T12:20:10.193Z,186
2022-10-24T12:22:11.059Z,170
2022-10-24T12:24:12.276Z,200
2022-10-24T12:26:13.721Z,200
2022-10-24T12:28:15.262Z,200
2022-10-24T12:30:16.660Z,163
2022-10-24T12:34:20.238Z,255
2022-10-24T12:38:23.113Z,220
2022-10-24T12:40:24.843Z,220
2022-10-24T12:44:27.568Z,178
2022-10-24T12:48:30.390Z,174
2022-10-24T12:49:14.128Z,174
2022-10-24T12:51:15.473Z,164
2022-10-24T12:53:16.791Z,183
2022-10-24T12:55:18.022Z,186
2022-10-24T12:57:19.220Z,186
2022-10-24T12:59:20.660Z,163
2022-10-24T13:01:22.587Z,163
2022-10-24T13:03:23.887Z,163
2022-10-24T13:05:24.793Z,163
2022-10-24T13:07:26.524Z,163
2022-10-24T13:11:29.872Z,163
2022-10-24T13:13:31.717Z,163
2022-10-24T13:15:33.006Z,163
2022-10-24T13:17:34.580Z,170
2022-10-24T13:21:36.786Z,170
2022-10-24T13:23:37.829Z,170
2022-10-24T13:25:39.594Z,170
2022-10-24T13:27:41.449Z,170
2022-10-24T13:29:42.511Z,162
2022-10-24T13:31:44.321Z,164
2022-10-24T13:33:46.147Z,123
2022-10-24T13:35:47.680Z,144
2022-10-24T13:37:49.359Z,167
2022-10-24T13:39:50.560Z,167
2022-10-24T13:41:52.155Z,167
2022-10-24T13:43:53.680Z,146
2022-10-24T13:45:54.765Z,171
2022-10-24T13:47:56.099Z,172
2022-10-24T13:51:59.039Z,184
2022-10-24T13:53:59.989Z,165
2022-10-24T13:56:01.001Z,149
2022-10-24T13:58:01.810Z,179
2022-10-24T14:00:03.009Z,163
2022-10-24T14:02:04.511Z,167
2022-10-24T14:04:06.268Z,186
2022-10-24T14:06:07.957Z,173
2022-10-24T14:10:10.450Z,184
2022-10-24T14:14:13.763Z,153
2022-10-24T14:16:13.821Z,166
2022-10-24T14:20:17.240Z,181
2022-10-24T14:24:19.570Z,168
2022-10-24T14:26:21.072Z,176
2022-10-24T14:30:23.146Z,176
2022-10-24T14:32:24.221Z,173
2022-10-24T14:34:26.047Z,184
2022-10-24T14:36:27.481Z,157
2022-10-24T14:42:31.371Z,185
2022-10-24T14:44:34.926Z,185
2022-10-24T14:46:34.711Z,168
2022-10-24T14:48:36.213Z,159
2022-10-24T14:54:39.105Z,155
2022-10-24T14:56:40.331Z,155
2022-10-24T14:58:42.002Z,170
2022-10-24T15:02:44.943Z,186
2022-10-24T15:04:45.699Z,168
2022-10-24T15:06:47.471Z,149
2022-10-24T15:08:48.798Z,164
2022-10-24T15:10:50.134Z,175
2022-10-24T15:12:51.676Z,164
2022-10-24T15:14:53.493Z,178
2022-10-24T15:18:55.723Z,181
2022-10-24T15:22:58.259Z,167
2022-10-24T15:24:59.978Z,171
2022-10-24T15:27:01.115Z,173
2022-10-24T15:29:02.627Z,170
2022-10-24T15:31:03.698Z,156
2022-10-24T15:33:05.262Z,182
2022-10-24T15:35:06.116Z,182
2022-10-24T15:37:07.137Z,179
2022-10-24T15:39:08.330Z,171
2022-10-24T15:41:09.483Z,178
2022-10-24T15:45:11.958Z,135
2022-10-24T15:47:13.440Z,166
2022-10-24T15:49:14.793Z,175
2022-10-24T15:51:15.951Z,162
2022-10-24T15:55:18.854Z,169
2022-10-24T15:57:20.594Z,172
2022-10-24T15:59:22.096Z,179
2022-10-24T16:01:23.502Z,158
2022-10-24T16:05:25.849Z,172
2022-10-24T16:07:27.277Z,174
2022-10-24T16:11:29.556Z,187
2022-10-24T16:13:30.537Z,182
2022-10-24T16:17:32.903Z,136
2022-10-24T16:21:35.384Z,175
2022-10-24T16:23:36.800Z,175
2022-10-24T16:25:38.575Z,175
2022-10-24T16:27:39.937Z,175
2022-10-24T16:29:41.281Z,175
2022-10-24T16:33:43.907Z,151
2022-10-24T16:35:45.648Z,152
2022-10-24T16:37:47.262Z,175
2022-10-24T16:39:49.064Z,176
2022-10-24T16:43:52.018Z,139
2022-10-24T16:45:53.369Z,165
2022-10-24T16:47:54.720Z,170
2022-10-24T16:49:55.635Z,175
2022-10-24T16:51:56.680Z,163
2022-10-24T16:53:58.123Z,170
2022-10-24T16:55:59.169Z,171
2022-10-24T16:58:00.611Z,162
2022-10-24T17:00:01.610Z,157
2022-10-24T17:04:04.199Z,178
2022-10-24T17:06:05.238Z,179
2022-10-24T17:08:06.696Z,179
2022-10-24T17:10:07.803Z,170
2022-10-24T17:12:09.693Z,157
2022-10-24T17:16:12.423Z,169
2022-10-24T17:18:13.372Z,170
2022-10-24T17:20:14.773Z,169
2022-10-24T17:22:16.529Z,170
2022-10-24T17:26:19.966Z,174
2022-10-24T17:28:21.388Z,179
2022-10-24T17:30:23.077Z,179
2022-10-24T17:32:24.360Z,179
2022-10-24T17:36:27.181Z,144
2022-10-24T17:38:28.456Z,175
2022-10-24T17:40:29.701Z,179
2022-10-24T17:42:30.921Z,174
2022-10-24T17:44:32.673Z,170
2022-10-24T17:46:34.479Z,174
2022-10-24T17:48:36.182Z,175
2022-10-24T17:50:37.980Z,192
2022-10-24T17:52:39.704Z,179
2022-10-24T17:54:44.806Z,172
2022-10-24T17:58:43.478Z,172
2022-10-24T18:00:44.509Z,168
2022-10-24T18:02:45.406Z,176
2022-10-24T18:04:46.362Z,172
2022-10-24T18:08:49.220Z,161
2022-10-24T18:10:51.085Z,170
2022-10-24T18:14:53.118Z,158
2022-10-24T18:18:55.351Z,189
2022-10-24T18:20:57.214Z,168
2022-10-24T18:24:59.534Z,170
2022-10-24T18:29:02.902Z,131
2022-10-24T18:31:03.807Z,180
2022-10-24T18:35:06.813Z,175
2022-10-24T18:37:07.862Z,175
2022-10-24T18:39:09.592Z,175
2022-10-24T18:41:11.208Z,187
2022-10-24T18:47:15.272Z,177
2022-10-24T18:49:16.557Z,178
2022-10-24T18:51:17.492Z,176
2022-10-24T18:53:21.454Z,177
2022-10-24T18:55:19.315Z,169
2022-10-24T18:57:20.682Z,173
2022-10-24T18:59:21.872Z,174
2022-10-24T19:01:23.816Z,181
2022-10-24T19:03:24.914Z,181
2022-10-24T19:07:28.320Z,177
2022-10-24T19:09:29.980Z,177
2022-10-24T19:13:33.029Z,183
2022-10-24T19:15:34.280Z,183
2022-10-24T19:17:36.119Z,182
2022-10-24T19:19:37.273Z,190
2022-10-24T19:21:38.315Z,177
2022-10-24T19:23:39.259Z,173
2022-10-24T19:25:40.956Z,181
2022-10-24T19:27:41.863Z,173
2022-10-24T19:29:43.553Z,177
2022-10-24T19:31:45.291Z,127
2022-10-24T19:33:46.707Z,234
2022-10-24T19:34:30.537Z,239
2022-10-24T19:36:32.166Z,218
2022-10-24T19:38:33.182Z,212
2022-10-24T19:40:34.560Z,266
2022-10-24T19:44:36.472Z,255
2022-10-24T19:46:37.621Z,239
2022-10-24T19:48:39.480Z,213
2022-10-24T19:50:41.093Z,256
2022-10-24T19:54:44.159Z,233
2022-10-24T19:56:45.840Z,159
2022-10-24T19:58:47.325Z,206
2022-10-24T20:00:49.012Z,166
2022-10-24T20:06:52.067Z,215
2022-10-24T20:08:53.245Z,185
2022-10-24T20:10:55.045Z,261
2022-10-24T20:12:56.610Z,179
2022-10-24T20:16:59.391Z,216
2022-10-24T20:19:01.082Z,206
2022-10-24T20:21:02.071Z,189
2022-10-24T20:23:02.988Z,178
2022-10-24T20:29:06.272Z,266
2022-10-24T20:33:08.755Z,266
2022-10-24T20:35:09.699Z,266
2022-10-24T20:37:10.684Z,144
2022-10-24T20:39:11.907Z,203
2022-10-24T20:43:14.075Z,178
2022-10-24T20:45:19.047Z,225
2022-10-24T20:47:16.708Z,176
2022-10-24T20:49:17.975Z,176
2022-10-24T20:51:19.824Z,176
2022-10-24T20:53:20.763Z,176
2022-10-24T20:55:32.176Z,250
2022-10-24T20:57:24.000Z,250
2022-10-24T20:59:25.127Z,188
2022-10-24T21:01:26.483Z,210
2022-10-24T21:03:28.009Z,204
2022-10-24T21:05:29.105Z,176
2022-10-24T21:07:30.968Z,176
2022-10-24T21:09:32.618Z,176
2022-10-24T21:11:34.386Z,177
2022-10-24T21:15:36.514Z,159
2022-10-24T21:17:37.928Z,160
2022-10-24T21:21:40.805Z,185
2022-10-24T21:25:43.891Z,183
2022-10-24T21:27:45.164Z,186
2022-10-24T21:29:46.739Z,186
2022-10-24T21:31:47.732Z,198
2022-10-24T21:33:48.933Z,171
2022-10-24T21:35:50.129Z,158
2022-10-24T21:37:51.172Z,175
2022-10-24T21:39:52.707Z,184
2022-10-24T21:43:55.233Z,179
2022-10-24T21:45:56.499Z,170
2022-10-24T21:47:57.990Z,172
2022-10-24T21:49:59.734Z,172
2022-10-24T21:52:00.920Z,172
2022-10-24T21:54:02.485Z,172
2022-10-24T21:58:05.752Z,173
2022-10-24T22:00:07.026Z,173
2022-10-24T22:02:08.135Z,173
2022-10-24T22:04:09.251Z,173
2022-10-24T22:08:12.079Z,173
2022-10-24T22:10:13.441Z,174
2022-10-24T22:14:15.883Z,199
2022-10-24T22:18:18.692Z,176
2022-10-24T22:20:20.575Z,147
2022-10-24T22:24:23.537Z,171
2022-10-24T22:28:26.054Z,166
2022-10-24T22:30:26.988Z,169
2022-10-24T22:34:29.297Z,175
2022-10-24T22:36:31.081Z,184
2022-10-24T22:38:32.432Z,186
2022-10-24T22:40:33.315Z,225
2022-10-24T22:44:36.629Z,222
2022-10-24T22:46:37.755Z,222
2022-10-24T22:48:39.443Z,222
2022-10-24T22:50:40.454Z,222
2022-10-24T22:52:41.892Z,222
2022-10-24T22:56:44.629Z,222
2022-10-24T22:58:46.531Z,222
2022-10-24T23:00:47.649Z,222
2022-10-24T23:02:49.303Z,205
2022-10-24T23:06:51.836Z,205
2022-10-24T23:08:53.209Z,205
2022-10-24T23:10:54.707Z,167
2022-10-24T23:12:56.154Z,167
2022-10-24T23:14:57.529Z,167
2022-10-24T23:16:58.702Z,167
2022-10-24T23:19:00.027Z,167
2022-10-24T23:21:01.523Z,167
2022-10-24T23:23:09.503Z,167
2022-10-24T23:25:04.789Z,167
2022-10-24T23:27:06.549Z,167
2022-10-24T23:29:08.338Z,167
2022-10-24T23:31:10.202Z,167
2022-10-24T23:33:11.950Z,167
2022-10-24T23:35:13.113Z,167
2022-10-24T23:39:15.343Z,167
2022-10-24T23:41:16.556Z,167
2022-10-24T23:43:17.873Z,167
2022-10-24T23:45:19.560Z,167
2022-10-24T23:49:22.139Z,167
2022-10-24T23:51:23.898Z,167
2022-10-24T23:53:25.594Z,167
2022-10-24T23:55:27.188Z,167
2022-10-24T23:59:29.541Z,168
